Time;durP1;ratioP1;P1;durP2;ratioP2;P2;SDS_P1;SDS_P2;PMS_P1;PMS_P2;Temp;Humidity;BMP_temperature;BMP_pressure;BME280_temperature;BME280_humidity;BME280_pressure;Samples;Min_cycle;Max_cycle;Signal;HPM_P1;HPM_P2
2021/03/01 05:01:33;;;;;;;22.88;12.07;;;5.50;99.90;;;;;;5412818;23;20272;-66
2021/03/01 05:04:00;;;;;;;26.95;14.20;;;5.50;99.90;;;;;;4953771;29;20201;-66
2021/03/01 05:06:26;;;;;;;20.77;11.90;;;5.50;99.90;;;;;;4955138;28;20579;-67
2021/03/01 05:08:53;;;;;;;24.02;12.48;;;5.50;99.90;;;;;;4938907;28;20202;-65
2021/03/01 05:11:30;;;;;;;23.60;12.85;;;5.50;99.90;;;;;;4934624;29;20229;-66
2021/03/01 05:13:56;;;;;;;24.27;13.80;;;5.50;99.90;;;;;;4936717;29;20217;-65
2021/03/01 05:16:24;;;;;;;28.02;12.63;;;5.50;99.90;;;;;;4928243;29;20258;-66
2021/03/01 05:18:51;;;;;;;24.08;12.90;;;5.50;99.90;;;;;;4922444;29;20354;-66
2021/03/01 05:21:17;;;;;;;27.30;13.25;;;5.50;99.90;;;;;;4933576;28;20700;-65
2021/03/01 05:23:43;;;;;;;24.30;12.82;;;5.50;99.90;;;;;;4931289;29;20207;-65
2021/03/01 05:26:10;;;;;;;25.92;13.10;;;5.50;99.90;;;;;;4926498;29;20210;-68
2021/03/01 05:28:36;;;;;;;26.90;13.95;;;5.40;99.90;;;;;;4933872;29;20218;-68
2021/03/01 05:31:03;;;;;;;21.40;12.48;;;5.40;99.90;;;;;;4916952;29;20230;-68
2021/03/01 05:33:29;;;;;;;22.15;12.27;;;5.40;99.90;;;;;;4918301;29;20210;-67
2021/03/01 05:35:56;;;;;;;23.65;12.90;;;5.40;99.90;;;;;;4934195;29;20206;-67
2021/03/01 05:38:22;;;;;;;21.95;13.10;;;5.40;99.90;;;;;;4936046;29;20340;-66
2021/03/01 05:40:49;;;;;;;27.42;14.30;;;5.50;99.90;;;;;;4927510;29;20586;-66
2021/03/01 05:43:18;;;;;;;25.63;14.18;;;5.50;99.90;;;;;;4931392;29;20202;-66
2021/03/01 05:45:45;;;;;;;21.48;12.63;;;5.40;99.90;;;;;;4933014;29;20202;-67
2021/03/01 05:48:14;;;;;;;26.95;13.63;;;5.40;99.90;;;;;;4935648;29;20618;-67
2021/03/01 05:50:42;;;;;;;21.80;12.18;;;5.40;99.90;;;;;;4923889;29;20226;-67
2021/03/01 05:53:12;;;;;;;23.73;12.93;;;5.40;99.90;;;;;;4924487;29;20647;-67
2021/03/01 05:55:39;;;;;;;24.02;12.80;;;5.40;99.90;;;;;;4922713;29;20603;-67
2021/03/01 05:58:08;;;;;;;24.90;12.98;;;5.40;99.90;;;;;;4926692;29;20289;-67
2021/03/01 06:00:35;;;;;;;25.23;11.73;;;5.40;99.90;;;;;;4920788;29;20716;-67
2021/03/01 06:03:01;;;;;;;17.95;10.90;;;5.40;99.90;;;;;;4926542;29;20535;-67
2021/03/01 06:05:28;;;;;;;27.75;13.18;;;5.30;99.90;;;;;;4923937;29;20207;-67
2021/03/01 06:07:56;;;;;;;21.15;11.82;;;5.30;99.90;;;;;;4935425;28;20218;-67
2021/03/01 06:10:23;;;;;;;22.13;12.07;;;5.30;99.90;;;;;;4934743;29;20217;-67
2021/03/01 06:12:49;;;;;;;24.33;13.07;;;5.30;99.90;;;;;;4934547;29;20212;-67
2021/03/01 06:15:17;;;;;;;21.40;13.07;;;5.30;99.90;;;;;;4935711;29;20241;-67
2021/03/01 06:18:04;;;;;;;21.92;12.10;;;5.30;99.90;;;;;;4917276;29;20560;-67
2021/03/01 06:20:30;;;;;;;22.48;13.10;;;5.30;99.90;;;;;;4934561;29;20261;-66
2021/03/01 06:22:57;;;;;;;26.00;14.35;;;5.40;99.90;;;;;;4922075;29;20261;-66
2021/03/01 06:25:24;;;;;;;27.05;13.60;;;5.40;99.90;;;;;;4936332;29;20220;-67
2021/03/01 06:27:52;;;;;;;25.92;12.60;;;5.40;99.90;;;;;;4917500;29;20669;-67
2021/03/01 06:30:21;;;;;;;26.77;13.93;;;5.40;99.90;;;;;;4916304;29;20210;-67
2021/03/01 06:33:04;;;;;;;26.60;13.23;;;5.40;99.90;;;;;;4928859;29;20207;-66
2021/03/01 06:35:31;;;;;;;26.25;12.85;;;5.40;99.90;;;;;;4914897;29;20675;-69
2021/03/01 06:38:19;;;;;;;26.52;14.38;;;5.40;99.90;;;;;;4920712;29;20211;-67
2021/03/01 06:41:10;;;;;;;27.05;15.18;;;5.40;99.90;;;;;;4934443;29;20234;-67
2021/03/01 06:43:38;;;;;;;28.92;14.50;;;5.40;99.90;;;;;;4925506;29;20202;-67
2021/03/01 06:46:12;;;;;;;28.83;14.32;;;5.50;99.90;;;;;;4930576;29;20213;-67
2021/03/01 06:48:40;;;;;;;25.95;12.73;;;5.50;99.90;;;;;;4924707;29;20213;-67
2021/03/01 06:51:06;;;;;;;22.10;12.48;;;5.50;99.90;;;;;;4931456;29;20222;-67
2021/03/01 06:53:33;;;;;;;25.90;13.75;;;5.50;99.90;;;;;;4923511;29;20209;-69
2021/03/01 06:56:03;;;;;;;24.15;12.85;;;5.40;99.90;;;;;;4926322;28;20213;-68
2021/03/01 06:58:33;;;;;;;25.75;15.20;;;5.40;99.90;;;;;;4919692;29;20213;-68
2021/03/01 07:01:03;;;;;;;29.63;14.23;;;5.40;99.90;;;;;;4918554;29;20694;-67
2021/03/01 07:03:29;;;;;;;27.17;13.27;;;5.50;99.90;;;;;;4933437;29;20206;-68
2021/03/01 07:05:57;;;;;;;27.02;15.07;;;5.50;99.90;;;;;;4931449;29;20206;-67
2021/03/01 07:08:34;;;;;;;26.52;15.27;;;5.50;99.90;;;;;;4916760;29;20317;-67
2021/03/01 07:11:01;;;;;;;29.88;14.93;;;5.50;99.90;;;;;;4920522;29;20229;-68
2021/03/01 07:13:28;;;;;;;25.15;15.05;;;5.60;99.90;;;;;;4915746;29;20212;-67
2021/03/01 07:15:55;;;;;;;27.25;14.50;;;5.50;99.90;;;;;;4917219;29;20211;-67
2021/03/01 07:18:21;;;;;;;32.38;16.05;;;5.50;99.90;;;;;;4916558;29;20548;-68
2021/03/01 07:20:49;;;;;;;29.95;15.80;;;5.50;99.90;;;;;;4927614;29;20310;-68
2021/03/01 07:23:15;;;;;;;22.75;13.60;;;5.50;99.90;;;;;;4932469;29;20214;-67
2021/03/01 07:25:44;;;;;;;28.77;15.20;;;5.50;99.90;;;;;;4929458;29;20720;-68
2021/03/01 07:28:13;;;;;;;29.05;14.77;;;5.60;99.90;;;;;;4931161;29;20221;-67
2021/03/01 07:30:42;;;;;;;31.33;15.05;;;5.60;99.90;;;;;;4928303;29;20274;-67
2021/03/01 07:33:09;;;;;;;24.67;13.65;;;5.50;99.90;;;;;;4934660;29;20214;-69
2021/03/01 07:35:36;;;;;;;26.70;14.90;;;5.60;99.90;;;;;;4920806;29;20575;-68
2021/03/01 07:38:04;;;;;;;29.05;14.55;;;5.60;99.90;;;;;;4933466;29;20537;-68
2021/03/01 07:40:30;;;;;;;25.85;15.18;;;5.50;99.90;;;;;;4934356;29;20626;-68
2021/03/01 07:42:57;;;;;;;29.55;15.48;;;5.40;99.90;;;;;;4934088;29;20218;-67
2021/03/01 07:45:24;;;;;;;32.35;17.33;;;5.40;99.90;;;;;;4933305;29;20202;-68
2021/03/01 07:47:50;;;;;;;30.42;14.38;;;5.50;99.90;;;;;;4934213;29;20644;-68
2021/03/01 07:50:32;;;;;;;32.50;16.35;;;5.50;99.90;;;;;;4916798;29;20210;-68
2021/03/01 07:52:58;;;;;;;27.73;15.55;;;5.60;99.90;;;;;;4918977;29;20207;-67
2021/03/01 07:55:24;;;;;;;33.28;16.30;;;5.60;99.90;;;;;;4919752;29;20253;-68
2021/03/01 07:58:01;;;;;;;35.80;15.85;;;5.70;99.90;;;;;;4920897;29;20211;-68
2021/03/01 08:00:30;;;;;;;31.83;16.50;;;5.80;99.90;;;;;;4916775;29;20230;-69
2021/03/01 08:02:57;;;;;;;32.15;16.17;;;5.80;99.90;;;;;;4918598;29;20597;-68
2021/03/01 08:05:25;;;;;;;31.73;15.98;;;5.80;99.90;;;;;;4916621;29;20280;-68
2021/03/01 08:07:52;;;;;;;27.05;15.52;;;5.80;99.90;;;;;;4915313;29;20669;-68
2021/03/01 08:10:20;;;;;;;30.67;16.20;;;5.80;99.90;;;;;;4927788;29;20198;-68
2021/03/01 08:13:00;;;;;;;25.85;15.25;;;5.90;99.90;;;;;;4923084;29;20218;-68
2021/03/01 08:15:33;;;;;;;36.42;17.27;;;5.90;99.90;;;;;;4926862;29;20273;-68
2021/03/01 08:18:00;;;;;;;42.67;20.17;;;5.90;99.90;;;;;;4923924;29;20207;-68
2021/03/01 08:20:31;;;;;;;41.50;21.25;;;5.90;99.90;;;;;;4923803;29;20234;-70
2021/03/01 08:23:18;;;;;;;265.00;113.85;;;6.00;99.90;;;;;;4931516;29;20214;-68
2021/03/01 08:25:55;;;;;;;44.38;23.88;;;6.00;99.90;;;;;;4927750;29;20656;-68
2021/03/01 08:28:47;;;;;;;63.95;36.03;;;6.00;99.90;;;;;;4919905;29;20297;-68
2021/03/01 08:31:42;;;;;;;32.67;15.45;;;6.00;99.90;;;;;;4927097;29;20230;-68
2021/03/01 08:34:34;;;;;;;30.90;16.25;;;6.00;99.90;;;;;;4924563;29;20736;-68
2021/03/01 08:37:03;;;;;;;115.03;60.88;;;6.10;99.90;;;;;;4918417;29;20245;-68
2021/03/01 08:40:05;;;;;;;99.75;55.20;;;6.10;99.90;;;;;;4926906;29;20278;-67
2021/03/01 08:42:49;;;;;;;26.10;16.02;;;6.10;99.90;;;;;;4917696;29;20226;-67
2021/03/01 08:45:30;;;;;;;26.13;15.25;;;6.10;99.90;;;;;;4927110;29;20221;-67
2021/03/01 08:47:59;;;;;;;41.35;21.67;;;6.10;99.90;;;;;;4919928;29;20309;-67
2021/03/01 08:50:28;;;;;;;40.10;22.00;;;6.10;99.90;;;;;;4922364;29;20206;-67
2021/03/01 08:52:54;;;;;;;50.97;30.17;;;6.10;99.90;;;;;;4930247;28;20668;-67
2021/03/01 08:55:21;;;;;;;30.40;17.73;;;6.30;99.90;;;;;;4929704;29;20233;-67
2021/03/01 08:58:05;;;;;;;28.25;16.70;;;6.30;99.90;;;;;;4930033;29;20548;-66
2021/03/01 09:00:33;;;;;;;26.55;15.25;;;6.40;99.90;;;;;;4928152;29;20230;-68
2021/03/01 09:03:10;;;;;;;33.63;20.65;;;6.40;99.90;;;;;;4936541;29;20194;-68
2021/03/01 09:05:36;;;;;;;24.50;14.52;;;6.40;99.90;;;;;;4930899;29;20250;-68
2021/03/01 09:08:04;;;;;;;26.30;14.38;;;6.50;99.90;;;;;;4919762;29;20222;-68
2021/03/01 09:10:38;;;;;;;26.50;15.55;;;6.50;99.90;;;;;;4917367;29;20238;-68
2021/03/01 09:13:04;;;;;;;20.38;14.15;;;6.60;99.90;;;;;;4918097;29;20570;-68
2021/03/01 09:15:31;;;;;;;24.85;14.38;;;6.60;99.90;;;;;;4917716;29;20293;-68
2021/03/01 09:17:57;;;;;;;26.48;14.45;;;6.60;99.90;;;;;;4930039;29;20206;-68
2021/03/01 09:20:24;;;;;;;25.83;14.43;;;6.60;99.90;;;;;;4936619;29;20229;-68
2021/03/01 09:22:51;;;;;;;22.92;13.63;;;6.60;99.90;;;;;;4922526;29;20203;-67
2021/03/01 09:25:31;;;;;;;22.17;12.80;;;6.70;99.90;;;;;;4930369;29;20286;-68
2021/03/01 09:27:57;;;;;;;20.58;12.10;;;6.70;99.90;;;;;;4934574;29;20265;-68
2021/03/01 09:30:25;;;;;;;21.50;12.90;;;6.70;99.90;;;;;;4935230;29;20229;-68
2021/03/01 09:32:56;;;;;;;23.65;12.20;;;6.70;99.90;;;;;;4917000;29;20669;-68
2021/03/01 09:35:25;;;;;;;25.65;15.07;;;6.70;99.90;;;;;;4922534;29;20567;-67
2021/03/01 09:37:51;;;;;;;24.60;14.10;;;6.70;99.90;;;;;;4920858;29;20217;-68
2021/03/01 09:40:19;;;;;;;22.15;13.25;;;6.70;99.90;;;;;;4921338;29;20226;-68
2021/03/01 09:42:50;;;;;;;21.33;13.13;;;6.80;99.90;;;;;;4936029;29;20280;-68
2021/03/01 09:45:17;;;;;;;25.40;13.65;;;6.90;99.90;;;;;;4933924;29;20258;-67
2021/03/01 09:47:45;;;;;;;23.60;13.50;;;6.90;99.90;;;;;;4922777;29;20217;-67
2021/03/01 09:50:12;;;;;;;18.98;11.48;;;7.00;99.90;;;;;;4927823;29;20755;-68
2021/03/01 09:52:40;;;;;;;16.90;9.50;;;7.10;99.90;;;;;;4918560;29;21653;-67
2021/03/01 09:55:08;;;;;;;26.30;16.08;;;7.10;99.90;;;;;;4934858;29;20707;-67
2021/03/01 09:57:34;;;;;;;16.33;10.05;;;7.20;99.90;;;;;;4916862;29;20211;-67
2021/03/01 10:00:18;;;;;;;19.15;10.20;;;7.20;99.90;;;;;;4934420;29;20234;-67
2021/03/01 10:02:54;;;;;;;16.95;10.10;;;7.20;99.90;;;;;;4916804;29;20202;-67
2021/03/01 10:05:20;;;;;;;19.88;10.20;;;7.30;99.90;;;;;;4921384;29;20201;-68
2021/03/01 10:07:55;;;;;;;16.75;10.80;;;7.40;99.90;;;;;;4917068;29;20222;-68
2021/03/01 10:10:22;;;;;;;14.50;9.35;;;7.40;99.90;;;;;;4921550;29;20686;-68
2021/03/01 10:12:49;;;;;;;13.55;9.02;;;7.40;99.90;;;;;;4934330;29;20210;-68
2021/03/01 10:15:16;;;;;;;14.35;10.65;;;7.40;99.90;;;;;;4927287;29;20225;-67
2021/03/01 10:17:43;;;;;;;14.82;8.82;;;7.50;99.90;;;;;;4915834;29;20203;-68
2021/03/01 10:20:11;;;;;;;17.73;11.50;;;7.50;99.90;;;;;;4917304;29;20521;-67
2021/03/01 10:23:02;;;;;;;14.02;9.50;;;7.60;99.90;;;;;;4916591;29;20214;-67
2021/03/01 10:25:30;;;;;;;16.55;10.02;;;7.60;99.90;;;;;;4927110;29;20210;-67
2021/03/01 10:27:56;;;;;;;16.55;10.48;;;7.60;99.90;;;;;;4922344;29;20211;-67
2021/03/01 10:30:23;;;;;;;15.30;9.52;;;7.60;99.90;;;;;;4930874;29;20316;-67
2021/03/01 10:32:49;;;;;;;14.20;9.65;;;7.60;99.90;;;;;;4928834;29;20256;-67
2021/03/01 10:35:19;;;;;;;12.82;8.38;;;7.70;99.90;;;;;;4929915;29;20548;-67
2021/03/01 10:38:01;;;;;;;12.18;9.50;;;7.70;99.90;;;;;;4915757;29;20579;-68
2021/03/01 10:40:28;;;;;;;20.45;13.07;;;7.70;99.90;;;;;;4924386;29;20225;-68
2021/03/01 10:42:54;;;;;;;15.45;9.85;;;7.80;99.90;;;;;;4922533;29;20593;-68
2021/03/01 10:45:21;;;;;;;11.35;9.20;;;7.90;99.90;;;;;;4935304;29;20214;-68
2021/03/01 10:47:59;;;;;;;11.27;7.75;;;7.90;99.90;;;;;;4933504;29;20672;-68
2021/03/01 10:50:26;;;;;;;21.77;14.32;;;7.90;99.90;;;;;;4928667;29;20285;-68
2021/03/01 10:52:53;;;;;;;20.15;13.70;;;8.00;99.90;;;;;;4932629;29;20668;-68
2021/03/01 10:55:20;;;;;;;10.95;9.15;;;8.00;99.90;;;;;;4926994;29;20740;-69
2021/03/01 10:57:46;;;;;;;11.65;8.73;;;8.00;99.90;;;;;;4916866;29;20214;-68
2021/03/01 11:00:13;;;;;;;17.40;15.00;;;8.10;99.90;;;;;;4921103;29;20221;-69
2021/03/01 11:02:40;;;;;;;8.07;7.25;;;8.10;99.90;;;;;;4932491;29;20217;-68
2021/03/01 11:05:07;;;;;;;14.18;8.98;;;8.10;99.90;;;;;;4916974;29;20206;-68
2021/03/01 11:07:33;;;;;;;10.02;8.30;;;8.10;99.90;;;;;;4930749;29;20213;-68
2021/03/01 11:10:00;;;;;;;9.98;8.15;;;8.10;99.90;;;;;;4915805;29;20207;-68
2021/03/01 11:12:26;;;;;;;16.15;8.68;;;8.10;99.90;;;;;;4925336;29;20296;-68
2021/03/01 11:14:53;;;;;;;11.57;8.85;;;8.00;99.90;;;;;;4915879;29;20261;-69
2021/03/01 11:17:19;;;;;;;9.70;6.90;;;8.00;99.90;;;;;;4921340;29;20211;-66
2021/03/01 11:19:46;;;;;;;12.40;8.10;;;8.10;99.90;;;;;;4931009;29;20829;-67
2021/03/01 11:22:12;;;;;;;10.00;7.25;;;8.20;99.90;;;;;;4926915;29;20297;-67
2021/03/01 11:24:38;;;;;;;9.95;7.30;;;8.20;99.90;;;;;;4934723;29;20214;-67
2021/03/01 11:27:04;;;;;;;11.10;8.88;;;8.20;99.90;;;;;;4923122;29;20220;-68
2021/03/01 11:29:32;;;;;;;19.80;15.82;;;8.30;99.90;;;;;;4916106;29;20207;-69
2021/03/01 11:31:58;;;;;;;15.07;8.32;;;8.30;99.90;;;;;;4924962;29;20258;-67
2021/03/01 11:34:25;;;;;;;12.18;7.10;;;8.40;99.90;;;;;;4934840;29;20214;-67
2021/03/01 11:36:51;;;;;;;11.63;8.50;;;8.40;99.90;;;;;;4932368;29;20210;-68
2021/03/01 11:39:17;;;;;;;9.90;8.15;;;8.20;99.90;;;;;;4934363;29;20281;-68
2021/03/01 11:41:43;;;;;;;7.70;7.00;;;8.20;99.90;;;;;;4926552;29;20226;-68
2021/03/01 11:44:10;;;;;;;13.70;8.18;;;8.30;99.90;;;;;;4915262;29;20211;-67
2021/03/01 11:46:37;;;;;;;12.00;7.45;;;8.20;99.90;;;;;;4922185;29;20234;-69
2021/03/01 11:49:04;;;;;;;13.95;8.82;;;8.20;99.90;;;;;;4937914;29;20206;-68
2021/03/01 11:51:30;;;;;;;10.00;8.48;;;8.20;99.90;;;;;;4935462;29;20704;-68
2021/03/01 11:53:56;;;;;;;10.80;8.60;;;8.30;99.90;;;;;;4937297;29;20262;-68
2021/03/01 11:56:22;;;;;;;11.10;8.25;;;8.50;99.90;;;;;;4925353;29;20210;-68
2021/03/01 11:58:49;;;;;;;8.65;7.60;;;8.50;99.90;;;;;;4935581;29;20242;-68
2021/03/01 12:01:15;;;;;;;11.80;8.52;;;8.50;99.90;;;;;;4918332;29;20242;-68
2021/03/01 12:03:42;;;;;;;13.80;7.60;;;8.60;99.90;;;;;;4919736;29;20563;-68
2021/03/01 12:06:09;;;;;;;8.57;7.28;;;8.60;99.90;;;;;;4921292;29;20891;-68
2021/03/01 12:08:35;;;;;;;13.68;8.95;;;8.60;99.90;;;;;;4935732;29;20552;-67
2021/03/01 12:11:01;;;;;;;11.20;7.70;;;8.70;99.90;;;;;;4918541;29;20696;-67
2021/03/01 12:13:28;;;;;;;12.75;9.07;;;8.70;99.90;;;;;;4918511;29;20214;-67
2021/03/01 12:15:54;;;;;;;9.10;7.45;;;8.80;99.90;;;;;;4919634;29;20322;-67
2021/03/01 12:18:20;;;;;;;12.18;7.82;;;9.00;99.90;;;;;;4918865;29;20349;-67
2021/03/01 12:20:47;;;;;;;11.07;9.30;;;9.00;99.90;;;;;;4935039;29;20630;-67
2021/03/01 12:23:13;;;;;;;13.35;8.00;;;9.10;99.90;;;;;;4932181;29;20237;-67
2021/03/01 12:25:39;;;;;;;15.15;8.75;;;9.10;99.90;;;;;;4918032;29;20215;-66
2021/03/01 12:28:06;;;;;;;14.48;8.45;;;9.10;99.90;;;;;;4918854;29;20207;-67
2021/03/01 12:30:32;;;;;;;16.48;8.85;;;9.10;99.90;;;;;;4928197;29;20653;-67
2021/03/01 12:32:59;;;;;;;13.45;8.02;;;9.10;99.90;;;;;;4917567;29;20209;-67
2021/03/01 12:35:25;;;;;;;11.57;8.85;;;9.20;99.90;;;;;;4931880;29;20221;-67
2021/03/01 12:37:52;;;;;;;9.50;8.18;;;9.00;99.90;;;;;;4920266;29;20213;-67
2021/03/01 12:40:19;;;;;;;13.85;7.15;;;8.80;99.90;;;;;;4922864;29;20239;-68
2021/03/01 12:42:45;;;;;;;16.63;8.43;;;8.80;99.90;;;;;;4936595;29;20216;-67
2021/03/01 12:45:12;;;;;;;10.85;8.18;;;8.70;99.90;;;;;;4937470;29;20205;-67
2021/03/01 12:47:38;;;;;;;15.98;8.63;;;8.60;99.90;;;;;;4935799;29;20210;-67
2021/03/01 12:50:06;;;;;;;15.90;7.88;;;8.60;99.90;;;;;;4922906;29;20669;-68
2021/03/01 12:52:32;;;;;;;10.25;7.60;;;8.60;99.90;;;;;;4919899;29;20218;-67
2021/03/01 12:54:59;;;;;;;9.05;7.43;;;8.50;99.90;;;;;;4920038;29;20663;-67
2021/03/01 12:57:25;;;;;;;11.52;8.00;;;8.40;99.90;;;;;;4922770;29;20211;-67
2021/03/01 12:59:51;;;;;;;16.23;7.55;;;8.20;99.90;;;;;;4917656;29;20226;-66
2021/03/01 13:02:18;;;;;;;13.90;8.13;;;8.10;99.90;;;;;;4925263;29;20237;-67
2021/03/01 13:04:45;;;;;;;17.42;8.85;;;8.00;99.90;;;;;;4936040;29;20213;-67
2021/03/01 13:07:11;;;;;;;16.25;11.57;;;8.20;99.90;;;;;;4927631;29;20203;-66
2021/03/01 13:09:38;;;;;;;13.38;9.20;;;8.30;99.90;;;;;;4920555;29;20211;-67
2021/03/01 13:12:05;;;;;;;10.50;7.50;;;8.40;99.90;;;;;;4924858;29;20234;-66
2021/03/01 13:14:32;;;;;;;16.15;9.00;;;8.50;99.90;;;;;;4932535;29;20210;-67
2021/03/01 13:16:58;;;;;;;12.00;7.70;;;8.40;99.90;;;;;;4922339;29;20211;-66
2021/03/01 13:19:24;;;;;;;18.23;8.15;;;8.40;99.90;;;;;;4930767;29;20602;-66
2021/03/01 13:21:50;;;;;;;22.83;8.30;;;8.50;99.90;;;;;;4934975;28;20602;-67
2021/03/01 13:24:18;;;;;;;21.88;9.00;;;8.60;99.90;;;;;;4935924;29;20623;-67
2021/03/01 13:26:44;;;;;;;14.07;10.93;;;8.70;99.90;;;;;;4934994;29;20217;-68
2021/03/01 13:29:12;;;;;;;13.38;7.80;;;8.70;99.90;;;;;;4925350;29;20229;-68
2021/03/01 13:31:38;;;;;;;17.17;7.70;;;8.70;99.90;;;;;;4922227;29;20229;-68
2021/03/01 13:34:05;;;;;;;14.73;7.97;;;8.50;99.90;;;;;;4923416;29;20210;-68
2021/03/01 13:36:31;;;;;;;12.70;7.50;;;8.40;99.90;;;;;;4926844;28;20215;-68
2021/03/01 13:38:58;;;;;;;11.18;7.22;;;8.40;99.90;;;;;;4929762;29;20242;-68
2021/03/01 13:41:25;;;;;;;10.10;5.80;;;8.30;99.90;;;;;;4935008;29;20651;-68
2021/03/01 13:43:51;;;;;;;11.90;8.63;;;8.40;99.90;;;;;;4934729;29;20221;-67
2021/03/01 13:46:18;;;;;;;18.60;11.40;;;8.40;99.90;;;;;;4935303;29;20217;-68
2021/03/01 13:48:44;;;;;;;12.13;7.18;;;8.50;99.90;;;;;;4925365;29;20217;-68
2021/03/01 13:51:10;;;;;;;12.02;9.10;;;8.50;99.90;;;;;;4934567;29;20233;-68
2021/03/01 13:53:36;;;;;;;114.65;57.42;;;8.60;99.90;;;;;;4933871;29;20724;-68
2021/03/01 13:56:03;;;;;;;15.68;10.73;;;8.70;99.90;;;;;;4934570;28;20221;-69
2021/03/01 13:58:29;;;;;;;12.55;8.65;;;8.70;99.90;;;;;;4931037;29;20231;-69
2021/03/01 14:00:55;;;;;;;13.75;8.32;;;8.70;99.90;;;;;;4920468;29;20282;-68
2021/03/01 14:03:22;;;;;;;15.23;8.15;;;8.70;99.90;;;;;;4920380;29;20206;-67
2021/03/01 14:05:48;;;;;;;24.45;14.23;;;8.70;99.90;;;;;;4916229;29;20217;-66
2021/03/01 14:08:15;;;;;;;15.75;8.35;;;8.70;99.90;;;;;;4916847;29;20225;-67
2021/03/01 14:10:41;;;;;;;14.82;8.30;;;8.70;99.90;;;;;;4916887;28;20222;-67
2021/03/01 14:13:07;;;;;;;11.82;7.93;;;8.60;99.90;;;;;;4915849;29;20591;-67
2021/03/01 14:15:33;;;;;;;8.05;6.75;;;8.50;99.90;;;;;;4915838;29;20290;-68
2021/03/01 14:17:59;;;;;;;11.15;8.65;;;8.50;99.90;;;;;;4916348;29;20215;-68
2021/03/01 14:20:26;;;;;;;13.85;8.63;;;8.60;99.90;;;;;;4916549;29;20699;-69
2021/03/01 14:22:52;;;;;;;12.60;8.45;;;8.60;99.90;;;;;;4914748;29;20732;-69
2021/03/01 14:25:19;;;;;;;12.80;8.93;;;8.60;99.90;;;;;;4916373;29;20215;-69
2021/03/01 14:27:45;;;;;;;12.73;8.27;;;8.60;99.90;;;;;;4915808;29;20288;-69
2021/03/01 14:30:12;;;;;;;12.27;8.02;;;8.60;99.90;;;;;;4916987;29;20725;-70
2021/03/01 14:32:39;;;;;;;12.20;7.75;;;8.70;99.90;;;;;;4915079;29;20612;-69
2021/03/01 14:35:06;;;;;;;11.80;6.72;;;8.60;99.90;;;;;;4916268;29;20209;-69
2021/03/01 14:37:33;;;;;;;10.82;7.95;;;8.60;99.90;;;;;;4915405;29;20217;-69
2021/03/01 14:39:59;;;;;;;12.55;8.27;;;8.70;99.90;;;;;;4929354;29;20252;-69
2021/03/01 14:42:25;;;;;;;12.95;8.18;;;8.60;99.90;;;;;;4928766;29;20225;-67
2021/03/01 14:44:52;;;;;;;13.15;8.30;;;8.60;99.90;;;;;;4928680;29;20210;-67
2021/03/01 14:47:18;;;;;;;19.20;8.93;;;8.60;99.90;;;;;;4923021;29;20210;-67
2021/03/01 14:49:44;;;;;;;13.73;8.75;;;8.60;99.90;;;;;;4926744;29;20600;-67
2021/03/01 14:52:10;;;;;;;12.13;9.23;;;8.60;99.90;;;;;;4921857;29;20584;-68
2021/03/01 14:54:37;;;;;;;13.65;8.00;;;8.60;99.90;;;;;;4929234;29;20214;-68
2021/03/01 14:57:04;;;;;;;10.98;7.20;;;8.60;99.90;;;;;;4934836;29;20268;-68
2021/03/01 14:59:31;;;;;;;12.27;7.60;;;8.60;99.90;;;;;;4930217;29;20712;-68
2021/03/01 15:01:57;;;;;;;18.55;12.43;;;8.60;99.90;;;;;;4914697;29;20265;-68
2021/03/01 15:04:23;;;;;;;15.63;10.40;;;8.60;99.90;;;;;;4923906;29;20266;-68
2021/03/01 15:06:49;;;;;;;13.02;8.60;;;8.70;99.90;;;;;;4915730;29;20207;-68
2021/03/01 15:09:15;;;;;;;13.48;8.20;;;8.70;99.90;;;;;;4934364;29;20269;-67
2021/03/01 15:11:43;;;;;;;9.00;7.93;;;8.70;99.90;;;;;;4923928;29;20286;-67
2021/03/01 15:14:10;;;;;;;18.13;8.23;;;8.70;99.90;;;;;;4915330;29;20273;-66
2021/03/01 15:16:36;;;;;;;11.55;7.85;;;8.60;99.90;;;;;;4924353;29;20273;-65
2021/03/01 15:19:03;;;;;;;12.43;8.35;;;8.60;99.90;;;;;;4934587;29;20210;-68
2021/03/01 15:21:29;;;;;;;12.75;8.73;;;8.60;99.90;;;;;;4927551;29;20553;-68
2021/03/01 15:23:55;;;;;;;11.18;8.27;;;8.60;99.90;;;;;;4933056;29;20244;-68
2021/03/01 15:26:22;;;;;;;15.18;8.98;;;8.60;99.90;;;;;;4923323;29;20207;-68
2021/03/01 15:28:49;;;;;;;12.32;7.35;;;8.60;99.90;;;;;;4919477;29;20663;-68
2021/03/01 15:31:15;;;;;;;18.73;9.63;;;8.60;99.90;;;;;;4932914;28;20603;-68
2021/03/01 15:33:42;;;;;;;10.27;8.27;;;8.60;99.90;;;;;;4938027;29;20236;-67
2021/03/01 15:36:09;;;;;;;12.73;8.35;;;8.50;99.90;;;;;;4932153;29;20217;-67
2021/03/01 15:38:35;;;;;;;14.27;10.20;;;8.50;99.90;;;;;;4937525;29;20273;-67
2021/03/01 15:41:02;;;;;;;14.10;8.25;;;8.40;99.90;;;;;;4925111;29;20234;-68
2021/03/01 15:43:28;;;;;;;16.33;9.75;;;8.40;99.90;;;;;;4932534;28;20221;-68
2021/03/01 15:45:55;;;;;;;12.57;8.15;;;8.40;99.90;;;;;;4935523;29;20906;-67
2021/03/01 15:48:21;;;;;;;13.50;9.05;;;8.40;99.90;;;;;;4937466;29;20646;-68
2021/03/01 15:50:47;;;;;;;17.05;9.25;;;8.30;99.90;;;;;;4933968;29;20233;-68
2021/03/01 15:53:13;;;;;;;13.48;9.57;;;8.30;99.90;;;;;;4918286;29;20210;-69
2021/03/01 15:55:40;;;;;;;13.23;9.35;;;8.30;99.90;;;;;;4918851;29;20570;-68
2021/03/01 15:58:06;;;;;;;18.70;9.88;;;8.20;99.90;;;;;;4918966;29;20217;-68
2021/03/01 16:00:33;;;;;;;11.38;9.50;;;8.20;99.90;;;;;;4926104;29;20257;-68
2021/03/01 16:03:00;;;;;;;18.10;8.95;;;8.10;99.90;;;;;;4917909;29;20262;-68
2021/03/01 16:05:26;;;;;;;15.10;8.57;;;8.10;99.90;;;;;;4924850;29;20225;-69
2021/03/01 16:07:52;;;;;;;17.88;9.98;;;8.00;99.90;;;;;;4937126;29;20221;-69
2021/03/01 16:10:18;;;;;;;26.27;12.68;;;8.00;99.90;;;;;;4931801;29;20503;-69
2021/03/01 16:12:44;;;;;;;21.45;10.32;;;8.00;99.90;;;;;;4917657;29;20215;-69
2021/03/01 16:15:12;;;;;;;24.15;12.40;;;8.00;99.90;;;;;;4922410;29;20205;-67
2021/03/01 16:17:39;;;;;;;21.02;11.80;;;7.90;99.90;;;;;;4936581;29;20309;-67
2021/03/01 16:20:08;;;;;;;16.30;10.45;;;7.80;99.90;;;;;;4934553;29;20234;-67
2021/03/01 16:22:34;;;;;;;17.55;10.50;;;7.80;99.90;;;;;;4927096;29;20659;-68
2021/03/01 16:25:01;;;;;;;20.70;10.70;;;7.70;99.90;;;;;;4933666;28;20217;-68
2021/03/01 16:27:27;;;;;;;22.17;11.35;;;7.70;99.90;;;;;;4934735;29;20233;-67
2021/03/01 16:29:53;;;;;;;32.03;15.48;;;7.70;99.90;;;;;;4918400;29;20684;-67
2021/03/01 16:32:19;;;;;;;42.03;24.15;;;7.60;99.90;;;;;;4917970;29;20222;-67
2021/03/01 16:34:46;;;;;;;28.05;16.10;;;7.60;99.90;;;;;;4932494;29;20688;-67
2021/03/01 16:37:13;;;;;;;23.65;12.48;;;7.60;99.90;;;;;;4929666;29;20656;-68
2021/03/01 16:39:39;;;;;;;27.00;18.65;;;7.60;99.90;;;;;;4936987;29;20232;-68
2021/03/01 16:42:06;;;;;;;34.25;23.50;;;7.60;99.90;;;;;;4924505;29;20226;-68
2021/03/01 16:44:32;;;;;;;37.50;23.35;;;7.70;99.90;;;;;;4917852;29;20206;-67
2021/03/01 16:47:00;;;;;;;28.38;15.90;;;7.70;99.90;;;;;;4923995;29;20214;-68
2021/03/01 16:49:28;;;;;;;27.95;17.25;;;7.70;99.90;;;;;;4917958;29;20267;-68
2021/03/01 16:51:54;;;;;;;23.20;15.07;;;7.60;99.90;;;;;;4926718;29;20320;-67
2021/03/01 16:54:22;;;;;;;27.23;16.13;;;7.50;99.90;;;;;;4935756;29;20202;-68
2021/03/01 16:56:54;;;;;;;36.10;20.90;;;7.40;99.90;;;;;;4925509;29;20213;-68
2021/03/01 16:59:20;;;;;;;36.47;18.05;;;7.30;99.90;;;;;;4936089;29;20214;-69
2021/03/01 17:01:47;;;;;;;32.28;17.10;;;7.20;99.90;;;;;;4934340;29;20241;-68
2021/03/01 17:04:13;;;;;;;26.67;15.73;;;7.10;99.90;;;;;;4935078;29;20206;-68
2021/03/01 17:06:42;;;;;;;28.88;17.10;;;7.00;99.90;;;;;;4924994;29;20254;-68
2021/03/01 17:09:12;;;;;;;27.77;17.27;;;6.90;99.90;;;;;;4935915;29;20210;-69
2021/03/01 17:11:41;;;;;;;39.75;20.08;;;6.90;99.90;;;;;;4927043;29;20225;-68
2021/03/01 17:14:11;;;;;;;31.27;18.95;;;6.80;99.90;;;;;;4935490;29;20237;-69
2021/03/01 17:16:40;;;;;;;32.10;18.52;;;6.80;99.90;;;;;;4920816;29;20612;-68
2021/03/01 17:19:08;;;;;;;35.58;19.17;;;6.70;99.90;;;;;;4921973;29;20247;-68
2021/03/01 17:21:36;;;;;;;47.85;27.67;;;6.70;99.90;;;;;;4923775;29;20226;-67
2021/03/01 17:24:07;;;;;;;42.83;21.30;;;6.60;99.90;;;;;;4925234;29;20202;-68
2021/03/01 17:26:33;;;;;;;32.40;17.73;;;6.50;99.90;;;;;;4923639;29;20207;-67
2021/03/01 17:29:01;;;;;;;37.50;19.85;;;6.50;99.90;;;;;;4918073;29;20223;-67
2021/03/01 17:31:28;;;;;;;37.95;19.95;;;6.50;99.90;;;;;;4916602;29;20265;-68
2021/03/01 17:33:54;;;;;;;32.40;17.15;;;6.40;99.90;;;;;;4930968;29;20269;-67
2021/03/01 17:36:22;;;;;;;32.80;19.85;;;6.40;99.90;;;;;;4924824;29;20210;-68
2021/03/01 17:38:48;;;;;;;36.60;20.67;;;6.30;99.90;;;;;;4918428;29;20270;-67
2021/03/01 17:41:15;;;;;;;34.25;19.45;;;6.30;99.90;;;;;;4925360;29;20241;-67
2021/03/01 17:43:42;;;;;;;35.33;20.83;;;6.20;99.90;;;;;;4916236;29;20312;-68
2021/03/01 17:46:14;;;;;;;44.85;23.30;;;6.20;99.90;;;;;;4920263;29;20213;-67